WetterOnline ( https://www.wetteronline.de )

Wetter aktuell Lindberg

Aktuelles Wetter: Zwiesel (613m)

6-stündlich | Neueste Meldungen
Ortszeit Temperatur Wetter
So, 26.05. 14:00 18.3° C wolkig
So, 26.05. 8:00 10.4° C bewölkt
So, 26.05. 2:00 9.4° C wolkig
Sa, 25.05. 20:00 15.5° C wolkig
Sa, 25.05. 14:00 13.1° C bedeckt
Sa, 25.05. 8:00 8.7° C bedeckt
Sa, 25.05. 2:00 8.0° C wolkenlos
Fr, 24.05. 20:00 17.0° C leicht bewölkt
Ortszeit Temperatur Wetter
So, 26.05. 16:00 18.8° C bedeckt
So, 26.05. 15:50 18.8° C bedeckt
So, 26.05. 15:40 18.9° C bedeckt
So, 26.05. 15:30 19.1° C wolkig
So, 26.05. 15:20 19.1° C wolkig
So, 26.05. 15:10 19.0° C Sprühregen
So, 26.05. 15:00 18.6° C bedeckt
So, 26.05. 14:30 18.8° C bedeckt
So, 26.05. 14:00 18.3° C wolkig
So, 26.05. 13:30 18.4° C wolkig
So, 26.05. 13:00 18.3° C bewölkt
Ortszeit Relative Feuchte Sichtweite
So, 26.05. 14:00 61% 60 km
So, 26.05. 8:00 94% 45 km
So, 26.05. 2:00 97% 30 km
Sa, 25.05. 20:00 78% >70 km
Sa, 25.05. 14:00 88% 65 km
Sa, 25.05. 8:00 96% 40 km
Sa, 25.05. 2:00 98% 45 km
Fr, 24.05. 20:00 60% 60 km
Ortszeit Relative Feuchte Sichtweite
So, 26.05. 16:00 59% 65 km
So, 26.05. 15:50 59% -
So, 26.05. 15:40 55% -
So, 26.05. 15:30 55% 65 km
So, 26.05. 15:20 55% -
So, 26.05. 15:10 59% -
So, 26.05. 15:00 64% >70 km
So, 26.05. 14:30 61% 60 km
So, 26.05. 14:00 61% 60 km
So, 26.05. 13:30 63% 55 km
So, 26.05. 13:00 62% 55 km
Ortszeit Niederschlagsmenge Niederschlagsart
So, 26.05. 14:00 0.0 l/m2 in 6 Std. -
So, 26.05. 8:00 0.1 l/m2 in 12 Std. -
So, 26.05. 2:00 0.1 l/m2 in 6 Std. Regen
Sa, 25.05. 20:00 5 l/m2 in 12 Std. Regen
Sa, 25.05. 14:00 5 l/m2 in 6 Std. Regen
Sa, 25.05. 8:00 0.0 l/m2 in 12 Std. -
Sa, 25.05. 2:00 0.0 l/m2 in 6 Std. -
Fr, 24.05. 20:00 3 l/m2 in 12 Std. -
Ortszeit Niederschlagsmenge Niederschlagsart
So, 26.05. 16:00 <0.05 l/m2 in 1 Std. Regen
So, 26.05. 15:50 keine Meldung -
So, 26.05. 15:40 keine Meldung -
So, 26.05. 15:30 <0.05 l/m2 in 30 Min Schneeregen
So, 26.05. 15:20 keine Meldung -
So, 26.05. 15:10 keine Meldung -
So, 26.05. 15:00 0.0 l/m2 in 1 Std. -
So, 26.05. 14:30 0.0 l/m2 in 30 Min -
So, 26.05. 14:00 0.0 l/m2 in 1 Std. -
So, 26.05. 13:30 0.0 l/m2 in 30 Min -
So, 26.05. 13:00 0.0 l/m2 in 1 Std. -
Ortszeit Stärke Spitze Richtung
km/h Bft. km/h Grad Sektor
So, 26.05. 14:00 7 2 18 140° SO
So, 26.05. 8:00 0 0 7 - -
So, 26.05. 2:00 2 1 13 280° W
Sa, 25.05. 20:00 4 1 29 40° NO
Sa, 25.05. 14:00 4 1 18 340° N
Sa, 25.05. 8:00 4 1 22 300° NW
Sa, 25.05. 2:00 6 1 13 100° O
Fr, 24.05. 20:00 7 2 22 230° SW
Ortszeit Stärke Spitze Richtung
km/h Bft. km/h Grad Sektor
So, 26.05. 16:00 7 2 22 170° S
So, 26.05. 15:50 7 2 - 170° S
So, 26.05. 15:40 7 2 - 160° S
So, 26.05. 15:30 7 2 22 130° SO
So, 26.05. 15:20 7 2 - 130° SO
So, 26.05. 15:10 7 2 - 180° S
So, 26.05. 15:00 7 2 19 150° SO
So, 26.05. 14:30 9 2 19 170° S
So, 26.05. 14:00 7 2 18 140° SO
So, 26.05. 13:30 4 1 11 280° W
So, 26.05. 13:00 4 1 14 270° W
Ortszeit Untergrenze Bedeckung Gattung
total tief tief mittel hoch
So, 26.05. 14:00 990 m 8/8 2/8 - - -
So, 26.05. 8:00 5100 m 7/8 7/8 - - -
So, 26.05. 2:00 810 m 7/8 2/8 - - -
Sa, 25.05. 20:00 900 m 6/8 6/8 - - -
Sa, 25.05. 14:00 810 m 8/8 8/8 - - -
Sa, 25.05. 8:00 3000 m 8/8 8/8 - - -
Sa, 25.05. 2:00 - 0/8 0/8 - - -
Fr, 24.05. 20:00 7800 m 5/8 0/8 - - -
Ortszeit Bedeckungsgrad in Achtel und Wolkenuntergrenze
So, 26.05. 16:00 2(2100m) 8(2700m)
So, 26.05. 15:50 2(2100m) 8(2700m)
So, 26.05. 15:40 8
So, 26.05. 15:30 3(2100m) 7(3000m) 7(4500m)
So, 26.05. 15:20 3(2100m) 7(3000m) 7(4500m)
So, 26.05. 15:10 7
So, 26.05. 15:00 8(3000m)
So, 26.05. 14:30 8(3000m)
So, 26.05. 14:00 2(990m) 8(3000m)
So, 26.05. 13:30 1(1170m) 5(2100m) 7(3300m)
So, 26.05. 13:00 5(1800m) 6(2400m) 7(3000m)
Ortszeit Luftdruck NN (hPa) Tendenz (hPa in 3 Std.)
So, 26.05. 14:00 1019 + 0,4
So, 26.05. 8:00 1020 + 0,5
So, 26.05. 2:00 1020 + 0,2
Sa, 25.05. 20:00 1017 + 0,2
Sa, 25.05. 14:00 1018 + 0,6
Sa, 25.05. 8:00 1020 + 0,5
Sa, 25.05. 2:00 1019 + 0,3
Fr, 24.05. 20:00 1016 - 0,4
Ortszeit Luftdruck NN (hPa) Tendenz (hPa in 3 Std.)
So, 26.05. 16:00 1018 - 0,7
So, 26.05. 15:50 1018 keine Meldung
So, 26.05. 15:40 1018 keine Meldung
So, 26.05. 15:30 1018 - 0,5
So, 26.05. 15:20 1018 keine Meldung
So, 26.05. 15:10 1018 keine Meldung
So, 26.05. 15:00 1018 - 0,1
So, 26.05. 14:30 1018 + 0,1
So, 26.05. 14:00 1019 + 0,4
So, 26.05. 13:30 1019 + 0,2
So, 26.05. 13:00 1019 + 0,1
Ortszeit Schneehöhe (cm)
So, 26.05. 14:00 0
So, 26.05. 8:00 0
So, 26.05. 2:00 0
Sa, 25.05. 20:00 0
Sa, 25.05. 14:00 0
Sa, 25.05. 8:00 0
Sa, 25.05. 2:00 0
Fr, 24.05. 20:00 0
Ortszeit Schneehöhe (cm)
So, 26.05. 16:00 0
So, 26.05. 15:50 0
So, 26.05. 15:40 -
So, 26.05. 15:30 0
So, 26.05. 15:20 0
So, 26.05. 15:10 -
So, 26.05. 15:00 0
So, 26.05. 14:30 0
So, 26.05. 14:00 0
So, 26.05. 13:30 0
So, 26.05. 13:00 0
Link zu dieser Seite / Seite empfehlen

Das Wetter in ...